Time;durP1;ratioP1;P1;durP2;ratioP2;P2;SDS_P1;SDS_P2;PMS_P1;PMS_P2;Temp;Humidity;BMP_temperature;BMP_pressure;BME280_temperature;BME280_humidity;BME280_pressure;Samples;Min_cycle;Max_cycle;Signal;HPM_P1;HPM_P2
2021/09/22 00:00:18;;;;;;;21.17;13.32;;;11.50;91.60;;;;;;5049619;28;20025;-67
2021/09/22 00:02:44;;;;;;;24.33;14.73;;;11.50;91.20;;;;;;5049428;28;20020;-66
2021/09/22 00:05:11;;;;;;;22.48;14.15;;;11.50;91.50;;;;;;5051862;28;20024;-67
2021/09/22 00:07:37;;;;;;;17.42;11.65;;;11.50;91.90;;;;;;5023342;28;20024;-67
2021/09/22 00:10:05;;;;;;;19.35;14.05;;;11.50;91.50;;;;;;5043797;28;20044;-66
2021/09/22 00:12:31;;;;;;;18.50;12.13;;;11.50;91.80;;;;;;5051502;28;20606;-66
2021/09/22 00:14:56;;;;;;;19.35;12.57;;;11.50;91.70;;;;;;5033012;28;20033;-66
2021/09/22 00:17:22;;;;;;;20.52;13.15;;;11.50;91.20;;;;;;5050434;28;20023;-66
2021/09/22 00:19:47;;;;;;;25.10;15.73;;;11.50;91.40;;;;;;5051302;28;20517;-66
2021/09/22 00:22:13;;;;;;;23.52;14.30;;;11.60;91.00;;;;;;5047463;28;20112;-66
2021/09/22 00:24:39;;;;;;;20.40;12.13;;;11.60;90.90;;;;;;5033426;28;20071;-66
2021/09/22 00:27:04;;;;;;;17.27;11.43;;;11.50;90.90;;;;;;5025705;28;20091;-67
2021/09/22 00:29:30;;;;;;;20.27;14.38;;;11.50;91.00;;;;;;5047245;28;20111;-66
2021/09/22 00:31:55;;;;;;;21.10;13.65;;;11.50;91.10;;;;;;5047081;28;20079;-67
2021/09/22 00:34:21;;;;;;;19.92;12.32;;;11.50;90.60;;;;;;5048596;28;20554;-66
2021/09/22 00:36:48;;;;;;;15.57;11.45;;;11.50;90.70;;;;;;5050155;28;20037;-66
2021/09/22 00:39:14;;;;;;;19.67;14.10;;;11.50;90.60;;;;;;5046314;28;20021;-66
2021/09/22 00:41:40;;;;;;;16.55;11.40;;;11.60;90.40;;;;;;5044631;28;20036;-67
2021/09/22 00:44:05;;;;;;;19.38;10.77;;;11.50;90.20;;;;;;5046665;28;20025;-66
2021/09/22 00:46:31;;;;;;;15.70;11.65;;;11.50;90.20;;;;;;5029263;28;20475;-67
2021/09/22 00:48:57;;;;;;;14.15;10.70;;;11.50;90.20;;;;;;5049978;28;20431;-66
2021/09/22 00:51:22;;;;;;;17.48;10.10;;;11.50;89.70;;;;;;5032039;28;20063;-66
2021/09/22 00:53:48;;;;;;;19.38;11.75;;;11.50;89.70;;;;;;5050481;28;20045;-66
2021/09/22 00:56:14;;;;;;;17.55;11.75;;;11.60;89.90;;;;;;5048695;28;20033;-66
2021/09/22 00:58:40;;;;;;;19.88;10.27;;;11.60;89.50;;;;;;5031844;28;20032;-66
2021/09/22 01:01:05;;;;;;;17.05;10.48;;;11.60;89.40;;;;;;5046695;28;20029;-66
2021/09/22 01:03:31;;;;;;;13.05;9.30;;;11.60;89.20;;;;;;5048354;28;20025;-66
2021/09/22 01:05:59;;;;;;;14.65;10.05;;;11.60;88.80;;;;;;5039865;28;20029;-66
2021/09/22 01:08:26;;;;;;;13.18;9.40;;;11.70;88.90;;;;;;5048931;28;20033;-66
2021/09/22 01:10:52;;;;;;;15.98;10.02;;;11.70;88.80;;;;;;5047186;28;20107;-65
2021/09/22 01:13:17;;;;;;;14.63;9.77;;;11.60;88.50;;;;;;5032412;28;20482;-66
2021/09/22 01:15:44;;;;;;;13.63;10.13;;;11.70;88.10;;;;;;5048290;28;20025;-66
2021/09/22 01:18:16;;;;;;;16.13;9.18;;;11.70;88.30;;;;;;5031225;28;20032;-66
2021/09/22 01:20:47;;;;;;;15.07;9.75;;;11.70;88.00;;;;;;5049602;28;20056;-66
2021/09/22 01:23:15;;;;;;;13.95;9.50;;;11.70;88.40;;;;;;5050815;28;20009;-66
2021/09/22 01:25:43;;;;;;;14.35;9.85;;;11.60;88.30;;;;;;5047847;28;20036;-66
2021/09/22 01:28:08;;;;;;;14.73;10.15;;;11.70;88.60;;;;;;5053217;28;20418;-67
2021/09/22 01:30:34;;;;;;;13.93;10.43;;;11.60;89.00;;;;;;5049415;28;20029;-66
2021/09/22 01:33:06;;;;;;;15.02;10.23;;;11.70;89.40;;;;;;5051368;28;20036;-66
2021/09/22 01:35:37;;;;;;;17.42;11.13;;;11.70;89.00;;;;;;5034927;28;20036;-66
2021/09/22 01:38:08;;;;;;;14.75;10.23;;;11.70;89.00;;;;;;5049708;28;20033;-66
2021/09/22 01:40:33;;;;;;;16.10;10.43;;;11.70;89.00;;;;;;5051979;28;20024;-66
2021/09/22 01:43:01;;;;;;;15.68;10.82;;;11.70;89.00;;;;;;5054510;28;20364;-66
2021/09/22 01:45:27;;;;;;;18.00;11.07;;;11.60;89.10;;;;;;5051946;28;20025;-66
2021/09/22 01:47:53;;;;;;;19.15;12.00;;;11.70;89.50;;;;;;5049951;28;20097;-66
2021/09/22 01:50:20;;;;;;;13.80;10.23;;;11.70;89.60;;;;;;5049528;28;20052;-67
2021/09/22 01:52:49;;;;;;;20.58;11.07;;;11.70;90.00;;;;;;5051814;28;20112;-67
2021/09/22 01:55:16;;;;;;;18.95;12.82;;;11.70;90.30;;;;;;5051089;28;20036;-66
2021/09/22 01:57:41;;;;;;;20.88;11.85;;;11.60;90.70;;;;;;5052814;28;20071;-66
2021/09/22 02:00:07;;;;;;;19.50;12.93;;;11.50;90.90;;;;;;5030213;28;20053;-67
2021/09/22 02:02:33;;;;;;;20.65;12.90;;;11.60;91.10;;;;;;5051322;28;20029;-66
2021/09/22 02:04:59;;;;;;;20.85;12.40;;;11.50;91.20;;;;;;5044030;28;20102;-65
2021/09/22 02:07:25;;;;;;;17.48;11.73;;;11.60;91.20;;;;;;5053977;28;20379;-66
2021/09/22 02:09:51;;;;;;;18.05;12.35;;;11.50;91.00;;;;;;5051772;28;20075;-66
2021/09/22 02:12:16;;;;;;;19.00;12.18;;;11.50;90.90;;;;;;5052641;28;20025;-66
2021/09/22 02:14:42;;;;;;;22.17;13.75;;;11.50;91.00;;;;;;5027526;28;20029;-66
2021/09/22 02:17:07;;;;;;;22.63;13.90;;;11.50;91.20;;;;;;5058333;28;20029;-66
2021/09/22 02:19:33;;;;;;;19.83;12.85;;;11.50;91.20;;;;;;5053708;28;20040;-67
2021/09/22 02:21:58;;;;;;;18.77;12.98;;;11.50;90.70;;;;;;5046240;28;20051;-67
2021/09/22 02:24:24;;;;;;;18.17;12.57;;;11.50;90.70;;;;;;5051643;28;20031;-66
2021/09/22 02:26:52;;;;;;;20.48;11.82;;;11.50;91.10;;;;;;5051662;28;20417;-67
2021/09/22 02:29:18;;;;;;;21.17;12.88;;;11.50;90.90;;;;;;5052589;28;20044;-66
2021/09/22 02:31:45;;;;;;;20.25;12.57;;;11.60;90.90;;;;;;5049970;28;20033;-67
2021/09/22 02:34:11;;;;;;;18.13;11.75;;;11.60;90.70;;;;;;5052538;28;20472;-67
2021/09/22 02:36:36;;;;;;;18.98;11.77;;;11.60;90.50;;;;;;5051069;28;20147;-67
2021/09/22 02:39:02;;;;;;;16.55;11.95;;;11.60;90.20;;;;;;5047241;28;20029;-68
2021/09/22 02:41:28;;;;;;;17.48;11.27;;;11.60;90.40;;;;;;5035427;28;20398;-67
2021/09/22 02:43:53;;;;;;;17.60;10.93;;;11.60;89.90;;;;;;5049530;28;20017;-66
2021/09/22 02:46:19;;;;;;;20.95;11.80;;;11.60;90.00;;;;;;5050784;28;20021;-66
2021/09/22 02:48:44;;;;;;;15.98;10.55;;;11.70;89.80;;;;;;5053083;28;20024;-66
2021/09/22 02:51:10;;;;;;;16.67;10.20;;;11.70;89.80;;;;;;5050679;28;20029;-67
2021/09/22 02:53:35;;;;;;;17.65;10.63;;;11.60;89.40;;;;;;5053128;28;20037;-67
2021/09/22 02:56:01;;;;;;;13.40;10.02;;;11.60;89.40;;;;;;5050838;28;20056;-67
2021/09/22 02:58:26;;;;;;;18.33;10.48;;;11.50;89.70;;;;;;5052955;28;20049;-66
2021/09/22 03:00:52;;;;;;;14.80;9.90;;;11.50;89.70;;;;;;5049822;28;20032;-66
2021/09/22 03:03:17;;;;;;;15.68;10.32;;;11.50;89.30;;;;;;5047890;28;20032;-66
2021/09/22 03:05:43;;;;;;;13.93;9.07;;;11.50;89.40;;;;;;5050895;28;20096;-67
2021/09/22 03:08:09;;;;;;;13.93;10.15;;;11.60;89.00;;;;;;5049582;28;20036;-66
2021/09/22 03:10:34;;;;;;;16.60;10.00;;;11.70;89.00;;;;;;5049832;28;20029;-66
2021/09/22 03:13:01;;;;;;;19.05;9.32;;;11.70;88.60;;;;;;5048462;28;20398;-66
2021/09/22 03:15:27;;;;;;;21.48;10.85;;;11.70;89.10;;;;;;5049204;28;20040;-66
2021/09/22 03:17:52;;;;;;;19.52;10.32;;;11.70;88.80;;;;;;5049891;28;20083;-66
2021/09/22 03:20:18;;;;;;;17.65;9.70;;;11.80;89.20;;;;;;5050687;28;20216;-67
2021/09/22 03:22:44;;;;;;;21.23;10.57;;;11.80;88.80;;;;;;5050552;28;20025;-67
2021/09/22 03:25:10;;;;;;;31.73;17.92;;;11.80;88.90;;;;;;5051130;28;20024;-66
2021/09/22 03:27:36;;;;;;;23.70;10.95;;;11.80;88.50;;;;;;5051722;28;20017;-67
2021/09/22 03:30:04;;;;;;;17.45;10.70;;;11.80;88.40;;;;;;5049862;28;20047;-67
2021/09/22 03:32:29;;;;;;;57.00;29.80;;;11.90;88.40;;;;;;5049754;28;20075;-67
2021/09/22 03:34:55;;;;;;;16.75;10.52;;;11.90;88.60;;;;;;5045289;28;20060;-67
2021/09/22 03:37:20;;;;;;;17.58;9.60;;;12.00;88.20;;;;;;5052913;28;20104;-67
2021/09/22 03:39:46;;;;;;;48.92;23.83;;;12.00;88.00;;;;;;5033694;28;20036;-66
2021/09/22 03:42:11;;;;;;;28.98;12.25;;;12.00;88.50;;;;;;5052149;28;20025;-67
2021/09/22 03:44:37;;;;;;;16.67;9.57;;;12.00;88.40;;;;;;5048215;28;20036;-67
2021/09/22 03:47:03;;;;;;;18.10;10.02;;;12.00;88.50;;;;;;5050319;28;20059;-67
2021/09/22 03:49:28;;;;;;;20.95;9.50;;;12.00;88.40;;;;;;5050953;28;20063;-67
2021/09/22 03:51:54;;;;;;;15.13;9.35;;;12.00;88.30;;;;;;5050245;28;20048;-67
2021/09/22 03:54:19;;;;;;;20.08;10.45;;;12.00;88.60;;;;;;5051903;28;20028;-67
2021/09/22 03:56:45;;;;;;;22.02;9.50;;;12.00;88.60;;;;;;5032457;28;20457;-67
2021/09/22 03:59:11;;;;;;;24.67;10.02;;;12.00;88.80;;;;;;5049766;28;20094;-66
2021/09/22 04:01:37;;;;;;;17.92;9.40;;;12.00;89.00;;;;;;5048572;28;20102;-66
2021/09/22 04:04:02;;;;;;;20.17;9.27;;;12.00;88.90;;;;;;5051147;28;20467;-66
2021/09/22 04:06:28;;;;;;;21.65;8.82;;;11.90;89.20;;;;;;5031494;28;20055;-66
2021/09/22 04:08:53;;;;;;;25.33;9.65;;;12.00;89.70;;;;;;5050834;28;20037;-66
2021/09/22 04:11:19;;;;;;;18.83;9.30;;;12.00;89.60;;;;;;5032949;28;20108;-66
2021/09/22 04:13:45;;;;;;;17.17;9.20;;;12.00;89.70;;;;;;5044304;22;20062;-69
2021/09/22 04:16:10;;;;;;;19.85;9.82;;;12.00;89.90;;;;;;4976175;28;20034;-69
2021/09/22 04:18:37;;;;;;;23.83;9.43;;;12.00;89.90;;;;;;4990648;28;20031;-69
2021/09/22 04:21:02;;;;;;;21.25;7.80;;;12.00;90.00;;;;;;4979278;28;20026;-69
2021/09/22 04:23:28;;;;;;;24.48;9.45;;;12.00;89.80;;;;;;4969575;28;20084;-69
2021/09/22 04:25:53;;;;;;;22.30;9.07;;;12.00;89.90;;;;;;4991543;28;20026;-69
2021/09/22 04:28:19;;;;;;;22.98;9.27;;;12.00;89.80;;;;;;4993917;28;20164;-69
2021/09/22 04:30:45;;;;;;;19.13;9.10;;;12.00;89.60;;;;;;4991815;28;20416;-70
2021/09/22 04:33:10;;;;;;;27.50;8.80;;;12.00;89.30;;;;;;4985248;28;20033;-70
2021/09/22 04:35:36;;;;;;;27.50;8.77;;;12.00;89.60;;;;;;5002406;28;20025;-69
2021/09/22 04:38:02;;;;;;;21.70;9.13;;;12.00;89.50;;;;;;4991349;28;20038;-68
2021/09/22 04:40:29;;;;;;;20.88;8.50;;;12.00;89.60;;;;;;4983508;28;20503;-66
2021/09/22 04:42:56;;;;;;;23.02;8.05;;;12.00;89.80;;;;;;4995013;28;20128;-69
2021/09/22 04:45:23;;;;;;;21.27;8.13;;;12.00;89.50;;;;;;4993192;28;20404;-69
2021/09/22 04:47:49;;;;;;;26.73;8.63;;;12.00;89.60;;;;;;4995432;28;20108;-69
2021/09/22 04:50:15;;;;;;;21.80;7.18;;;12.00;89.80;;;;;;5000504;28;20038;-70
2021/09/22 04:52:40;;;;;;;23.42;8.90;;;12.00;90.00;;;;;;4991209;28;20085;-69
2021/09/22 04:55:06;;;;;;;22.67;7.95;;;12.00;89.80;;;;;;5007111;28;20033;-70
2021/09/22 04:57:32;;;;;;;23.73;8.27;;;12.00;89.80;;;;;;4988619;28;20057;-70
2021/09/22 04:59:58;;;;;;;21.52;9.25;;;12.00;89.90;;;;;;4988172;28;20022;-69
2021/09/22 05:02:24;;;;;;;27.50;8.68;;;12.00;90.00;;;;;;4992448;28;20065;-69
2021/09/22 05:04:50;;;;;;;27.67;8.90;;;12.00;89.60;;;;;;5003989;28;20066;-69
2021/09/22 05:07:16;;;;;;;19.27;8.30;;;12.00;89.60;;;;;;5009550;28;20516;-70
2021/09/22 05:09:44;;;;;;;21.45;8.65;;;12.00;89.70;;;;;;5004354;28;20022;-70
2021/09/22 05:12:10;;;;;;;22.85;7.95;;;12.00;89.30;;;;;;4998870;28;20523;-70
2021/09/22 05:14:35;;;;;;;19.42;7.85;;;12.00;89.40;;;;;;4998268;28;20044;-68
2021/09/22 05:17:01;;;;;;;17.95;8.07;;;12.00;89.10;;;;;;5010932;28;20038;-68
2021/09/22 05:19:27;;;;;;;27.08;9.18;;;12.10;89.30;;;;;;5000033;28;20026;-69
2021/09/22 05:21:53;;;;;;;18.38;7.85;;;12.10;89.40;;;;;;5002563;28;20021;-69
2021/09/22 05:24:18;;;;;;;25.98;7.50;;;12.20;88.90;;;;;;5009107;28;20022;-68
2021/09/22 05:26:44;;;;;;;23.33;8.05;;;12.30;88.70;;;;;;5004343;28;20120;-69
2021/09/22 05:29:10;;;;;;;26.08;7.50;;;12.30;88.40;;;;;;5025814;28;20025;-70
2021/09/22 05:31:35;;;;;;;23.42;7.25;;;12.30;88.40;;;;;;5003262;28;20427;-69
2021/09/22 05:34:01;;;;;;;25.48;7.45;;;12.40;88.30;;;;;;4990965;28;20031;-69
2021/09/22 05:36:27;;;;;;;22.20;7.78;;;12.40;88.50;;;;;;4992373;28;20041;-69
2021/09/22 05:38:52;;;;;;;16.67;6.30;;;12.50;88.30;;;;;;4981512;28;20451;-67
2021/09/22 05:41:18;;;;;;;25.45;7.50;;;12.50;88.00;;;;;;5021109;28;20029;-70
2021/09/22 05:43:44;;;;;;;24.88;7.03;;;12.60;87.70;;;;;;4989665;28;20110;-68
2021/09/22 05:46:10;;;;;;;22.92;6.80;;;12.60;87.40;;;;;;4995704;28;20101;-68
2021/09/22 05:48:35;;;;;;;25.60;7.53;;;12.70;87.20;;;;;;4995917;28;20114;-69
2021/09/22 05:51:01;;;;;;;16.17;7.05;;;12.70;86.90;;;;;;4992312;28;20054;-68
2021/09/22 05:53:26;;;;;;;22.27;6.30;;;12.80;87.30;;;;;;4992473;28;20031;-68
2021/09/22 05:55:52;;;;;;;18.92;6.30;;;12.90;86.60;;;;;;4985307;28;20038;-67
2021/09/22 05:58:19;;;;;;;21.85;5.55;;;13.00;86.40;;;;;;4986468;28;20404;-69
2021/09/22 06:00:46;;;;;;;23.20;7.63;;;13.20;86.20;;;;;;4996410;28;20022;-70
2021/09/22 06:03:12;;;;;;;26.77;6.93;;;13.50;84.60;;;;;;4990074;28;20133;-70
2021/09/22 06:05:40;;;;;;;15.27;6.40;;;13.50;84.30;;;;;;4990312;28;20117;-69
2021/09/22 06:08:07;;;;;;;16.67;6.13;;;13.70;83.90;;;;;;4989658;28;20049;-67
2021/09/22 06:10:33;;;;;;;25.80;6.32;;;13.90;82.80;;;;;;4987813;28;20567;-68
2021/09/22 06:12:59;;;;;;;24.20;6.97;;;14.00;81.80;;;;;;4985167;28;20038;-70
2021/09/22 06:15:25;;;;;;;17.63;5.18;;;14.20;82.30;;;;;;4994359;28;20045;-70
2021/09/22 06:17:51;;;;;;;21.02;5.68;;;14.70;81.00;;;;;;4988185;28;20389;-68
2021/09/22 06:20:17;;;;;;;20.77;5.15;;;15.30;79.30;;;;;;4988902;28;20034;-70
2021/09/22 06:22:42;;;;;;;18.95;4.63;;;15.80;77.00;;;;;;4994521;28;20081;-70
2021/09/22 06:25:08;;;;;;;15.43;5.10;;;16.30;74.10;;;;;;4989591;28;20054;-69
2021/09/22 06:27:34;;;;;;;25.13;6.57;;;16.40;73.20;;;;;;4988966;28;20030;-69
2021/09/22 06:30:00;;;;;;;20.05;5.03;;;16.30;73.50;;;;;;4987283;28;20035;-72
2021/09/22 06:32:25;;;;;;;15.57;5.50;;;16.00;74.00;;;;;;4988863;28;20041;-70
2021/09/22 06:34:51;;;;;;;18.42;5.25;;;15.50;75.20;;;;;;4989127;28;20037;-74
2021/09/22 06:37:16;;;;;;;15.27;5.07;;;15.10;76.20;;;;;;4997559;28;20388;-71
2021/09/22 06:39:42;;;;;;;27.10;4.93;;;15.00;77.60;;;;;;4994013;28;20128;-71
2021/09/22 06:42:07;;;;;;;21.95;5.38;;;14.70;77.60;;;;;;4991368;28;20668;-70
2021/09/22 06:44:34;;;;;;;24.15;5.82;;;14.50;79.00;;;;;;4991876;28;20033;-70
2021/09/22 06:47:00;;;;;;;25.90;6.10;;;14.40;79.00;;;;;;4995821;28;20415;-69
2021/09/22 06:49:25;;;;;;;20.08;4.75;;;14.10;79.70;;;;;;5000185;28;20105;-70
2021/09/22 06:51:51;;;;;;;19.77;5.97;;;14.00;80.30;;;;;;5004409;28;20507;-68
2021/09/22 06:54:16;;;;;;;22.48;5.57;;;13.90;80.80;;;;;;4999716;28;20109;-68
2021/09/22 06:56:42;;;;;;;22.13;4.90;;;13.90;80.80;;;;;;4997846;28;20033;-68
2021/09/22 06:59:07;;;;;;;19.90;5.95;;;13.80;81.40;;;;;;5007268;28;20040;-70
2021/09/22 07:01:33;;;;;;;28.90;6.55;;;13.70;81.30;;;;;;4994989;28;20154;-68
2021/09/22 07:03:59;;;;;;;22.92;5.47;;;13.60;81.30;;;;;;4988205;28;20022;-69
2021/09/22 07:06:24;;;;;;;21.73;6.47;;;13.60;81.70;;;;;;4991582;28;20150;-69
2021/09/22 07:08:50;;;;;;;49.97;22.52;;;13.50;82.10;;;;;;4991071;28;20034;-71
2021/09/22 07:11:16;;;;;;;29.20;10.25;;;13.60;82.40;;;;;;4986017;28;20093;-70
2021/09/22 07:13:41;;;;;;;60.15;25.00;;;13.50;82.40;;;;;;4994774;28;20043;-67
2021/09/22 07:16:10;;;;;;;31.45;10.85;;;13.50;82.70;;;;;;4993178;28;20026;-70
2021/09/22 07:18:36;;;;;;;79.55;34.35;;;13.50;82.40;;;;;;4990847;28;20061;-69
2021/09/22 07:21:04;;;;;;;31.70;8.57;;;13.50;82.50;;;;;;4989761;28;20439;-67
2021/09/22 07:23:30;;;;;;;171.75;110.25;;;13.60;82.20;;;;;;4992542;28;20127;-69
2021/09/22 07:25:55;;;;;;;35.28;12.43;;;13.80;82.50;;;;;;4995855;28;20034;-68
2021/09/22 07:28:21;;;;;;;116.10;62.67;;;14.00;81.40;;;;;;4992402;28;20032;-69
2021/09/22 07:30:47;;;;;;;26.92;9.40;;;13.90;82.20;;;;;;4989158;28;20499;-69
2021/09/22 07:33:12;;;;;;;30.83;8.48;;;14.00;80.80;;;;;;4985352;28;20487;-69
2021/09/22 07:35:38;;;;;;;25.55;9.60;;;13.90;80.80;;;;;;4988012;28;20035;-69
2021/09/22 07:38:03;;;;;;;29.52;11.02;;;13.90;80.90;;;;;;4990789;28;20027;-69
2021/09/22 07:40:30;;;;;;;25.17;5.95;;;14.00;81.00;;;;;;4991838;28;20050;-68
2021/09/22 07:42:57;;;;;;;27.65;9.95;;;14.30;79.60;;;;;;4999496;28;20025;-69
2021/09/22 07:45:23;;;;;;;31.63;11.52;;;14.60;79.00;;;;;;4991422;28;20080;-70
2021/09/22 07:47:49;;;;;;;34.10;7.43;;;14.80;77.90;;;;;;4995148;28;20044;-70
2021/09/22 07:50:15;;;;;;;17.33;6.05;;;15.10;76.80;;;;;;4997487;28;20026;-70
2021/09/22 07:52:41;;;;;;;23.70;7.40;;;15.20;75.70;;;;;;4989080;28;20045;-69
2021/09/22 07:55:10;;;;;;;43.95;20.70;;;15.30;74.90;;;;;;4989413;28;20089;-69
2021/09/22 07:57:36;;;;;;;30.10;9.50;;;15.50;75.80;;;;;;4987725;28;20078;-69
2021/09/22 08:00:03;;;;;;;20.77;6.90;;;15.60;74.10;;;;;;4988455;28;20121;-67
2021/09/22 08:02:29;;;;;;;23.10;8.43;;;15.70;73.40;;;;;;4991498;28;20042;-72
2021/09/22 08:04:54;;;;;;;34.38;15.50;;;15.80;73.60;;;;;;4989636;28;20018;-68
2021/09/22 08:07:20;;;;;;;56.30;29.58;;;16.10;73.10;;;;;;4988480;28;20041;-69
2021/09/22 08:09:45;;;;;;;23.13;7.65;;;16.20;73.00;;;;;;4991017;28;20023;-68
2021/09/22 08:12:11;;;;;;;21.77;7.50;;;16.30;71.40;;;;;;4993781;28;20080;-73
2021/09/22 08:14:37;;;;;;;28.23;9.27;;;16.70;71.20;;;;;;4981755;28;20096;-68
2021/09/22 08:17:04;;;;;;;17.65;5.80;;;17.00;69.50;;;;;;4993118;28;20032;-68
2021/09/22 08:19:30;;;;;;;20.70;6.13;;;17.00;69.20;;;;;;4990511;28;20038;-71
2021/09/22 08:21:57;;;;;;;16.92;5.05;;;17.00;67.70;;;;;;4990217;28;20092;-72
2021/09/22 08:24:23;;;;;;;18.92;5.65;;;17.00;68.50;;;;;;5006003;28;20048;-70
2021/09/22 08:26:52;;;;;;;16.15;4.78;;;16.90;68.60;;;;;;5005452;28;20491;-71
2021/09/22 08:29:18;;;;;;;18.30;5.65;;;16.90;68.80;;;;;;4990739;28;20081;-69
2021/09/22 08:31:43;;;;;;;16.70;5.32;;;16.90;68.60;;;;;;4983533;28;20034;-70
2021/09/22 08:34:09;;;;;;;16.70;4.72;;;16.80;68.30;;;;;;4988738;28;20038;-71
2021/09/22 08:36:34;;;;;;;19.20;4.68;;;16.90;68.40;;;;;;4984142;28;20027;-70
2021/09/22 08:39:00;;;;;;;17.67;4.38;;;16.90;67.60;;;;;;4991849;28;20492;-67
2021/09/22 08:41:26;;;;;;;15.75;5.32;;;16.90;68.40;;;;;;4988417;28;20034;-67
2021/09/22 08:43:52;;;;;;;19.77;5.18;;;16.70;68.70;;;;;;4989139;28;20030;-70
2021/09/22 08:46:19;;;;;;;17.10;4.85;;;16.60;68.80;;;;;;4982623;28;20114;-71
2021/09/22 08:48:45;;;;;;;22.23;5.40;;;16.40;69.90;;;;;;4985164;28;20616;-70
2021/09/22 08:51:10;;;;;;;17.55;5.22;;;16.30;70.00;;;;;;4989872;28;20038;-71
2021/09/22 08:53:36;;;;;;;16.42;5.32;;;16.40;70.10;;;;;;4984380;28;20049;-71
2021/09/22 08:56:02;;;;;;;21.20;4.88;;;16.70;69.30;;;;;;4991321;28;20037;-71
2021/09/22 08:58:28;;;;;;;25.30;6.45;;;16.90;68.80;;;;;;4989827;28;20026;-71
2021/09/22 09:01:15;;;;;;;22.08;5.85;;;16.90;67.80;;;;;;4988989;28;20037;-71
2021/09/22 09:03:42;;;;;;;23.83;5.55;;;16.70;67.50;;;;;;5003927;28;20442;-72
2021/09/22 09:06:34;;;;;;;17.70;5.35;;;16.70;68.50;;;;;;5003269;28;20019;-71
2021/09/22 09:09:03;;;;;;;17.65;5.20;;;16.60;69.00;;;;;;4984496;28;20501;-72
2021/09/22 09:11:36;;;;;;;23.27;5.55;;;16.60;68.40;;;;;;4988609;28;20108;-70
2021/09/22 09:14:05;;;;;;;23.13;5.00;;;16.70;68.10;;;;;;4990500;28;20034;-69
2021/09/22 09:16:37;;;;;;;21.27;4.88;;;16.60;67.80;;;;;;4989554;28;20034;-71
2021/09/22 09:19:20;;;;;;;17.95;5.25;;;16.80;67.30;;;;;;4992177;28;20065;-69
2021/09/22 09:22:02;;;;;;;15.32;4.68;;;16.70;68.00;;;;;;4987096;28;20031;-70
2021/09/22 09:24:35;;;;;;;18.70;4.70;;;16.80;66.70;;;;;;5010228;28;20081;-69
2021/09/22 09:27:02;;;;;;;18.25;4.75;;;17.00;67.30;;;;;;4990218;28;20561;-70
2021/09/22 09:29:27;;;;;;;21.38;5.60;;;17.10;66.20;;;;;;4986058;28;20030;-70
2021/09/22 09:32:09;;;;;;;18.25;4.85;;;17.20;65.40;;;;;;4985960;28;20030;-71
2021/09/22 09:34:35;;;;;;;17.45;4.85;;;17.50;65.30;;;;;;4983526;28;20143;-70
2021/09/22 09:37:00;;;;;;;16.13;4.22;;;17.70;64.20;;;;;;4992187;28;20138;-69
2021/09/22 09:42:31;;;;;;;14.02;4.20;;;18.00;62.70;;;;;;4985847;28;20038;-69
2021/09/22 09:44:57;;;;;;;16.70;4.03;;;18.00;62.00;;;;;;4987721;28;20073;-69
2021/09/22 09:47:23;;;;;;;16.10;4.25;;;17.80;61.60;;;;;;4992123;28;20030;-68
2021/09/22 09:49:49;;;;;;;24.10;4.40;;;17.70;61.90;;;;;;4993756;28;20034;-69
2021/09/22 09:52:15;;;;;;;12.70;4.00;;;17.80;61.60;;;;;;4995553;28;20491;-70
2021/09/22 09:54:48;;;;;;;17.33;4.90;;;18.00;61.90;;;;;;4994252;28;20042;-70
2021/09/22 09:57:16;;;;;;;18.73;4.60;;;18.20;60.00;;;;;;4989339;28;20030;-71
2021/09/22 09:59:47;;;;;;;16.33;5.32;;;18.20;61.00;;;;;;4992696;28;20092;-70
2021/09/22 10:02:24;;;;;;;16.23;4.35;;;18.20;60.50;;;;;;4994157;28;20033;-72
2021/09/22 10:04:50;;;;;;;15.27;4.13;;;18.10;59.70;;;;;;5007056;28;20061;-74
2021/09/22 10:07:17;;;;;;;14.77;4.95;;;18.00;60.90;;;;;;4995124;28;20046;-69
2021/09/22 10:09:42;;;;;;;16.90;5.00;;;18.20;60.90;;;;;;5000288;28;20026;-69
2021/09/22 10:12:09;;;;;;;24.05;5.65;;;18.20;59.90;;;;;;4992199;28;20166;-69
2021/09/22 10:14:35;;;;;;;18.05;5.82;;;18.00;60.80;;;;;;5033065;22;20048;-65
2021/09/22 10:17:01;;;;;;;17.23;4.20;;;17.80;61.60;;;;;;5050983;28;20021;-65
2021/09/22 10:19:28;;;;;;;20.02;5.53;;;17.60;61.30;;;;;;5048150;28;20090;-66
2021/09/22 10:21:54;;;;;;;22.83;5.47;;;17.80;60.80;;;;;;5041577;28;20043;-65
2021/09/22 10:24:22;;;;;;;18.10;4.88;;;18.00;61.20;;;;;;5072738;28;20529;-66
2021/09/22 10:26:48;;;;;;;16.63;4.03;;;18.20;60.70;;;;;;5059199;28;20393;-66
2021/09/22 10:29:22;;;;;;;15.20;4.57;;;18.20;60.40;;;;;;5087621;28;20137;-66
2021/09/22 10:31:48;;;;;;;20.20;5.55;;;18.20;60.60;;;;;;5055180;28;20028;-66
2021/09/22 10:34:31;;;;;;;17.95;4.93;;;18.20;61.10;;;;;;5080064;28;20371;-65
2021/09/22 10:36:57;;;;;;;17.90;5.20;;;18.10;59.80;;;;;;5089822;28;20036;-66
2021/09/22 10:39:42;;;;;;;34.03;9.38;;;17.90;60.70;;;;;;5061108;28;20606;-65
2021/09/22 10:42:25;;;;;;;13.80;3.92;;;17.60;62.10;;;;;;5080179;28;20020;-65
2021/09/22 10:44:51;;;;;;;14.20;3.72;;;17.50;61.10;;;;;;5089623;28;20035;-65
2021/09/22 10:47:30;;;;;;;16.05;4.68;;;17.40;61.60;;;;;;5078669;28;20020;-65
2021/09/22 10:49:56;;;;;;;15.45;4.03;;;17.50;62.50;;;;;;5080691;28;20077;-65
2021/09/22 10:52:33;;;;;;;16.02;4.47;;;18.00;62.10;;;;;;5074864;28;20040;-65
2021/09/22 10:55:11;;;;;;;14.20;4.28;;;18.50;59.80;;;;;;5074853;28;20035;-65
2021/09/22 10:57:39;;;;;;;11.40;3.17;;;18.70;59.00;;;;;;5084240;28;20453;-66
2021/09/22 11:00:12;;;;;;;14.85;3.22;;;18.90;58.20;;;;;;5066868;28;20024;-66
2021/09/22 11:02:53;;;;;;;18.63;3.90;;;19.00;56.90;;;;;;5076116;28;20028;-66
2021/09/22 11:05:28;;;;;;;15.00;3.60;;;18.70;57.10;;;;;;5086306;28;20017;-65
2021/09/22 11:07:53;;;;;;;12.32;3.08;;;18.60;57.80;;;;;;5083538;28;20110;-67
2021/09/22 11:10:42;;;;;;;13.45;3.72;;;18.40;59.70;;;;;;5060027;28;20548;-65
2021/09/22 11:13:21;;;;;;;14.25;3.90;;;18.40;59.50;;;;;;5062249;28;20055;-66
2021/09/22 11:15:51;;;;;;;15.18;4.18;;;18.60;59.30;;;;;;5082602;28;20080;-66
2021/09/22 11:18:17;;;;;;;16.23;4.65;;;18.90;57.80;;;;;;5085664;28;20070;-66
2021/09/22 11:20:57;;;;;;;15.07;3.75;;;19.00;57.40;;;;;;5088999;28;20434;-66
2021/09/22 11:23:23;;;;;;;14.48;3.65;;;19.10;56.20;;;;;;5079454;28;20016;-65
2021/09/22 11:25:49;;;;;;;13.85;3.78;;;19.30;56.10;;;;;;5064322;28;20393;-66
2021/09/22 11:28:15;;;;;;;15.35;3.97;;;19.30;55.90;;;;;;5085143;28;20533;-66
2021/09/22 11:30:43;;;;;;;17.45;4.25;;;19.10;56.20;;;;;;5085593;28;20119;-66
2021/09/22 11:33:23;;;;;;;13.85;3.85;;;18.70;56.50;;;;;;5080465;28;20035;-66
2021/09/22 11:35:48;;;;;;;21.88;4.35;;;18.10;57.60;;;;;;5077479;28;20025;-66
2021/09/22 11:38:14;;;;;;;14.77;4.00;;;17.90;58.30;;;;;;5067965;28;20121;-66
2021/09/22 11:40:40;;;;;;;21.33;3.97;;;17.70;59.90;;;;;;5058734;28;20036;-65
2021/09/22 11:43:15;;;;;;;19.08;4.07;;;17.60;60.40;;;;;;5065985;28;20029;-66
2021/09/22 11:46:00;;;;;;;15.23;4.00;;;17.70;60.20;;;;;;5075133;28;20111;-70
2021/09/22 11:48:27;;;;;;;15.45;4.13;;;18.00;59.10;;;;;;5063750;28;20090;-70
2021/09/22 11:50:53;;;;;;;15.93;4.07;;;18.10;58.80;;;;;;5074915;28;20042;-71
2021/09/22 11:53:21;;;;;;;12.63;3.40;;;18.50;57.10;;;;;;5055401;28;20108;-71
2021/09/22 11:55:49;;;;;;;37.70;25.10;;;18.50;57.70;;;;;;5083106;28;20027;-71
2021/09/22 11:58:17;;;;;;;22.13;9.70;;;18.60;57.80;;;;;;5069451;28;20021;-72
2021/09/22 12:00:47;;;;;;;44.10;27.67;;;18.80;56.90;;;;;;5071968;28;20052;-72
2021/09/22 12:03:14;;;;;;;16.65;4.82;;;19.00;55.60;;;;;;5064800;28;20025;-72
2021/09/22 12:05:42;;;;;;;18.13;5.43;;;19.00;55.40;;;;;;5058020;28;20028;-70
2021/09/22 12:08:09;;;;;;;20.33;8.45;;;19.00;55.40;;;;;;5060075;28;20029;-70
2021/09/22 12:10:41;;;;;;;23.55;12.00;;;18.90;55.70;;;;;;5078556;28;20032;-70
2021/09/22 12:13:07;;;;;;;14.95;4.43;;;19.00;55.00;;;;;;5052873;28;20060;-71
2021/09/22 12:15:34;;;;;;;26.60;11.18;;;18.90;54.80;;;;;;5054935;28;20064;-70
2021/09/22 12:18:00;;;;;;;12.75;5.18;;;19.00;54.80;;;;;;5071877;28;20024;-69
2021/09/22 12:20:27;;;;;;;28.08;14.63;;;19.00;55.10;;;;;;5074130;28;20033;-70
2021/09/22 12:23:08;;;;;;;23.40;7.07;;;18.90;55.50;;;;;;5073787;28;20033;-70
2021/09/22 12:25:35;;;;;;;24.77;9.83;;;18.80;56.30;;;;;;5071506;28;20036;-70
2021/09/22 12:28:02;;;;;;;42.83;23.55;;;18.80;55.80;;;;;;5054152;28;20029;-70
2021/09/22 12:30:39;;;;;;;26.42;11.10;;;18.60;56.40;;;;;;5055359;28;20559;-71
2021/09/22 12:33:08;;;;;;;28.17;14.90;;;18.80;55.70;;;;;;5063415;28;20024;-72
2021/09/22 12:35:42;;;;;;;17.83;4.45;;;19.00;56.60;;;;;;5072339;28;20501;-71